This is the latest recevied weather packets stored in our database for station/object DL4YM-13. If no packets are shown the sender has not sent any weather packets the latest 10 day(s).
| Time | Temp. | Humidity | Pressure | Rain* | Wind** | Luminosity | Snow |
|---|---|---|---|---|---|---|---|
| 1777817727 | 20.56° C | 40% | 994.8 hPa | - | - | - | - |
| 1777817127 | 20.56° C | 40% | 994.8 hPa | - | - | - | - |
| 1777816526 | 21.11° C | 39% | 994.8 hPa | - | - | - | - |
| 1777815927 | 21.11° C | 38% | 994.8 hPa | - | - | - | - |
| 1777815327 | 21.67° C | 38% | 994.9 hPa | - | - | - | - |
| 1777814726 | 22.22° C | 36% | 995 hPa | - | - | - | - |
| 1777814126 | 21.11° C | 37% | 995.2 hPa | - | - | - | - |
| 1777813527 | 22.78° C | 34% | 995.1 hPa | - | - | - | - |
| 1777812926 | 22.22° C | 34% | 995.3 hPa | - | - | - | - |
| 1777812326 | 22.78° C | 31% | 995.3 hPa | - | - | - | - |
| 1777811726 | 22.78° C | 31% | 995.3 hPa | - | - | - | - |
| 1777811126 | 23.33° C | 31% | 995.1 hPa | - | - | - | - |
| 1777810526 | 22.78° C | 32% | 995.1 hPa | - | - | - | - |
| 1777809927 | 21.67° C | 35% | 995.3 hPa | - | - | - | - |
| 1777809326 | 21.67° C | 35% | 995.3 hPa | - | - | - | - |
| 1777808727 | 22.22° C | 32% | 995.3 hPa | - | - | - | - |
| 1777808126 | 22.22° C | 31% | 995.4 hPa | - | - | - | - |
| 1777807526 | 22.22° C | 32% | 995.5 hPa | - | - | - | - |
| 1777806927 | 22.22° C | 34% | 995.6 hPa | - | - | - | - |
| 1777806327 | 21.67° C | 36% | 995.6 hPa | - | - | - | - |
| 1777805726 | 21.67° C | 38% | 995.7 hPa | - | - | - | - |
| 1777805126 | 21.67° C | 38% | 995.7 hPa | - | - | - | - |
| 1777804526 | 21.67° C | 40% | 995.9 hPa | - | - | - | - |
| 1777803926 | 21.11° C | 40% | 995.9 hPa | - | - | - | - |
| 1777803327 | 21.67° C | 43% | 995.9 hPa | - | - | - | - |
* Rain since midnight (hover to see other rain measurements)
** Current wind speed in m/s (hover to see current wind gust speed)